Weather at Larson Airport

Public forecast

Using degrees Fahrenheit for public forecast. Weather courtesy of forecast.io.

Closest aviation weather report (METAR) to Larson Airport

Closest report is Appleton International Airport, 6.2 nm (11.4 km) ENE. Retrieved 2021/06/13 15:45 UTC (1 hour ago):

KATW 131545Z 30005KT 10SM CLR 26/07 A3001

Closest aviation forecast (TAF) to Larson Airport

Closest forecast is Appleton International Airport, 6.2 nm (11.4 km) ENE. Retrieved 2021/06/13 12:27 UTC (4 hours ago):

TAF KATW 131125Z 1312/1412 29007KT P6SM SKC FM131600 30009G15KT P6SM SKC FM140000 34006KT P6SM SCT090 FM140300 04011G16KT P6SM SCT040 BKN070 TEMPO 1403/1405 2SM TSRA BKN018CB FM140600 04007KT P6SM BKN040 OVC070 FM140800 36005KT P6SM SCT080